createdAt,value
2023-04-04T00:01:20.235Z,101491.75
2023-04-04T00:03:51.981Z,101498.31
2023-04-04T00:06:22.708Z,101486.19
2023-04-04T00:08:51.315Z,101485.38
2023-04-04T00:11:19.796Z,101442.78
2023-04-04T00:13:48.293Z,101486.31
2023-04-04T00:16:16.754Z,101471.53
2023-04-04T00:18:45.216Z,101481.38
2023-04-04T00:21:13.688Z,101474.41
2023-04-04T00:23:43.413Z,101473.72
2023-04-04T00:26:11.807Z,101476.63
2023-04-04T00:28:41.937Z,101474.41
2023-04-04T00:31:10.608Z,101458.25
2023-04-04T00:33:39.090Z,101467.34
2023-04-04T00:36:07.994Z,101465.22
2023-04-04T00:38:36.542Z,101468.84
2023-04-04T00:41:07.617Z,101466.88
2023-04-04T00:43:36.457Z,101452.94
2023-04-04T00:46:05.083Z,101405.56
2023-04-04T00:48:33.776Z,101401.13
2023-04-04T00:51:02.500Z,101467.47
2023-04-04T00:53:30.996Z,101457.25
2023-04-04T00:55:59.474Z,101457.13
2023-04-04T00:58:29.346Z,101465.94
2023-04-04T01:00:58.010Z,101433.03
2023-04-04T01:03:26.451Z,101463.47
2023-04-04T01:05:55.860Z,101408.50
2023-04-04T01:08:27.750Z,101457.09
2023-04-04T01:10:56.313Z,101438.13
2023-04-04T01:13:25.049Z,101446.91
2023-04-04T01:15:55.502Z,101459.19
2023-04-04T01:18:26.622Z,101451.47
2023-04-04T01:21:00.667Z,101426.22
2023-04-04T01:23:41.903Z,101446.63
2023-04-04T01:26:12.072Z,101445.44
2023-04-04T01:28:41.095Z,101446.38
2023-04-04T01:31:15.806Z,101445.16
2023-04-04T01:33:52.636Z,101450.34
2023-04-04T01:36:27.917Z,101446.59
2023-04-04T01:39:02.027Z,101443.28
2023-04-04T01:41:35.356Z,101436.63
2023-04-04T01:44:05.057Z,101435.94
2023-04-04T01:46:33.895Z,101442.88
2023-04-04T01:49:02.353Z,101442.31
2023-04-04T01:51:35.724Z,101432.00
2023-04-04T01:54:04.446Z,101429.88
2023-04-04T01:56:34.549Z,101450.41
2023-04-04T01:59:03.084Z,101439.22
2023-04-04T02:01:33.357Z,101442.13
2023-04-04T02:04:02.433Z,101438.56
2023-04-04T02:06:31.264Z,101439.06
2023-04-04T02:08:59.870Z,101438.88
2023-04-04T02:11:28.851Z,101440.97
2023-04-04T02:13:58.595Z,101446.91
2023-04-04T02:16:28.340Z,101448.00
2023-04-04T02:18:56.834Z,101444.66
2023-04-04T02:21:26.230Z,101447.09
2023-04-04T02:23:54.651Z,101433.91
2023-04-04T02:26:23.067Z,101427.31
2023-04-04T02:28:51.392Z,101439.63
2023-04-04T02:31:21.910Z,101436.66
2023-04-04T02:33:50.270Z,101441.78
2023-04-04T02:36:20.484Z,101433.72
2023-04-04T02:38:51.243Z,101441.22
2023-04-04T02:41:21.165Z,101426.56
2023-04-04T02:43:49.457Z,101438.16
2023-04-04T02:46:22.031Z,101395.44
2023-04-04T02:48:55.940Z,101427.31
2023-04-04T02:51:24.459Z,101432.06
2023-04-04T02:53:53.009Z,101423.44
2023-04-04T02:56:26.712Z,101422.97
2023-04-04T02:58:55.644Z,101417.69
2023-04-04T03:01:25.933Z,101424.56
2023-04-04T03:03:54.650Z,101417.59
2023-04-04T03:06:24.075Z,101419.63
2023-04-04T03:08:52.512Z,101406.66
2023-04-04T03:11:21.610Z,101395.34
2023-04-04T03:13:52.369Z,101412.41
2023-04-04T03:16:27.992Z,101369.47
2023-04-04T03:18:57.292Z,101412.69
2023-04-04T03:21:25.978Z,101413.13
2023-04-04T03:23:57.204Z,101399.13
2023-04-04T03:26:28.360Z,101401.44
2023-04-04T03:28:57.364Z,101402.88
2023-04-04T03:31:28.526Z,101395.72
2023-04-04T03:33:56.935Z,101398.94
2023-04-04T03:36:25.510Z,101395.53
2023-04-04T03:38:53.985Z,101382.00
2023-04-04T03:41:22.352Z,101393.94
2023-04-04T03:43:50.942Z,101388.75
2023-04-04T03:46:19.429Z,101386.16
2023-04-04T03:48:50.117Z,101388.88
2023-04-04T03:51:25.163Z,101369.41
2023-04-04T03:53:53.582Z,101395.34
2023-04-04T03:56:21.961Z,101361.38
2023-04-04T03:58:50.428Z,101384.50
2023-04-04T04:01:22.056Z,101386.16
2023-04-04T04:03:52.174Z,101396.75
2023-04-04T04:06:20.674Z,101393.00
2023-04-04T04:08:49.996Z,101379.41
2023-04-04T04:11:18.332Z,101388.88
2023-04-04T04:13:46.737Z,101387.56
2023-04-04T04:16:15.556Z,101384.59
2023-04-04T04:18:44.033Z,101382.38
2023-04-04T04:21:18.657Z,101380.34
2023-04-04T04:23:47.059Z,101383.13
2023-04-04T04:26:15.431Z,101382.38
2023-04-04T04:28:43.979Z,101384.13
2023-04-04T04:31:16.832Z,101378.66
2023-04-04T04:33:49.706Z,101386.06
2023-04-04T04:36:22.939Z,101387.03
2023-04-04T04:39:02.316Z,101380.06
2023-04-04T04:41:34.581Z,101379.22
2023-04-04T04:44:04.252Z,101379.06
2023-04-04T04:46:33.003Z,101383.75
2023-04-04T04:49:02.202Z,101374.38
2023-04-04T04:51:34.333Z,101383.19
2023-04-04T04:54:02.833Z,101386.06
2023-04-04T04:56:33.053Z,101382.16
2023-04-04T04:59:09.193Z,101361.91
2023-04-04T05:01:40.182Z,101308.22
2023-04-04T05:04:08.826Z,101383.75
2023-04-04T05:06:45.049Z,101390.91
2023-04-04T05:09:14.648Z,101390.91
2023-04-04T05:11:43.312Z,101361.34
2023-04-04T05:14:13.300Z,101397.97
2023-04-04T05:16:49.636Z,101396.28
2023-04-04T05:19:19.416Z,101401.75
2023-04-04T05:21:54.049Z,101393.69
2023-04-04T05:24:40.460Z,101393.84
2023-04-04T05:27:09.384Z,101397.41
2023-04-04T05:29:43.680Z,101391.81
2023-04-04T05:32:12.178Z,101393.41
2023-04-04T05:34:43.187Z,101398.78
2023-04-04T05:37:18.136Z,101402.78
2023-04-04T05:39:50.051Z,101402.97
2023-04-04T05:42:19.749Z,101407.69
2023-04-04T05:44:52.313Z,101407.41
2023-04-04T05:47:22.062Z,101401.75
2023-04-04T05:49:51.109Z,101397.97
2023-04-04T05:52:22.547Z,101396.72
2023-04-04T05:54:52.302Z,101401.63
2023-04-04T05:57:28.115Z,101399.97
2023-04-04T05:59:58.913Z,101395.16
2023-04-04T06:02:29.309Z,101409.25
2023-04-04T06:05:02.797Z,101413.88
2023-04-04T06:07:38.445Z,101411.28
2023-04-04T06:10:08.765Z,101410.31
2023-04-04T06:12:37.846Z,101407.81
2023-04-04T06:15:11.157Z,101405.34
2023-04-04T06:17:41.667Z,101406.81
2023-04-04T06:20:12.285Z,101412.06
2023-04-04T06:22:43.009Z,101399.59
2023-04-04T06:25:11.806Z,101414.13
2023-04-04T06:27:41.050Z,101417.75
2023-04-04T06:30:12.098Z,101416.19
2023-04-04T06:32:41.240Z,101373.56
2023-04-04T06:35:13.680Z,101415.53
2023-04-04T06:37:47.921Z,101414.50
2023-04-04T06:40:20.037Z,101416.50
2023-04-04T06:42:50.680Z,101429.56
2023-04-04T06:45:20.134Z,101428.63
2023-04-04T06:47:49.987Z,101426.06
2023-04-04T06:50:18.825Z,101420.97
2023-04-04T06:52:51.358Z,101428.16
2023-04-04T06:55:20.295Z,101432.66
2023-04-04T06:57:48.631Z,101412.03
2023-04-04T07:00:17.941Z,101428.19
2023-04-04T07:02:46.833Z,101429.63
2023-04-04T07:05:18.033Z,101413.69
2023-04-04T07:07:47.631Z,101411.22
2023-04-04T07:10:17.629Z,101437.97
2023-04-04T07:12:46.061Z,101428.88
2023-04-04T07:15:14.648Z,101435.75
2023-04-04T07:17:43.038Z,101434.81
2023-04-04T07:20:12.254Z,101432.81
2023-04-04T07:22:40.834Z,101426.88
2023-04-04T07:25:10.673Z,101433.22
2023-04-04T07:27:41.137Z,101435.81
2023-04-04T07:30:11.182Z,101437.28
2023-04-04T07:32:39.620Z,101430.78
2023-04-04T07:35:09.736Z,101430.78
2023-04-04T07:37:38.708Z,101427.31
2023-04-04T07:40:09.731Z,101433.19
2023-04-04T07:42:46.213Z,101405.84
2023-04-04T07:45:14.985Z,101427.88
2023-04-04T07:47:46.120Z,101430.16
2023-04-04T07:50:15.348Z,101435.91
2023-04-04T07:52:44.204Z,101439.38
2023-04-04T07:55:13.370Z,101435.09
2023-04-04T07:57:44.905Z,101433.97
2023-04-04T08:00:14.803Z,101430.03
2023-04-04T08:02:45.603Z,101422.19
2023-04-04T08:05:14.041Z,101422.00
2023-04-04T08:07:42.736Z,101416.00
2023-04-04T08:10:11.821Z,101417.78
2023-04-04T08:12:40.681Z,101416.16
2023-04-04T08:15:12.273Z,101416.19
2023-04-04T08:17:40.795Z,101420.16
2023-04-04T08:20:09.955Z,101417.53
2023-04-04T08:22:38.502Z,101415.56
2023-04-04T08:25:07.608Z,101409.28
2023-04-04T08:27:36.044Z,101412.09
2023-04-04T08:30:05.194Z,101407.25
2023-04-04T08:32:34.895Z,101415.88
2023-04-04T08:35:03.544Z,101406.31
2023-04-04T08:37:32.207Z,101409.72
2023-04-04T08:40:00.521Z,101415.47
2023-04-04T08:42:29.954Z,101406.25
2023-04-04T08:45:03.973Z,101404.81
2023-04-04T08:47:36.051Z,101392.38
2023-04-04T08:50:07.308Z,101395.00
2023-04-04T08:52:36.640Z,101367.56
2023-04-04T08:55:08.131Z,101401.88
2023-04-04T08:57:37.887Z,101391.00
2023-04-04T09:00:08.438Z,101392.94
2023-04-04T09:02:48.348Z,101399.13
2023-04-04T09:05:17.661Z,101393.47
2023-04-04T09:07:46.537Z,101399.41
2023-04-04T09:10:14.956Z,101393.53
2023-04-04T09:12:47.532Z,101392.28
2023-04-04T09:15:17.121Z,101385.88
2023-04-04T09:17:46.819Z,101376.78
2023-04-04T09:20:41.974Z,101380.47
2023-04-04T09:23:13.157Z,101386.78
2023-04-04T09:26:02.510Z,101393.03
2023-04-04T09:28:33.527Z,101350.38
2023-04-04T09:31:05.617Z,101385.78
2023-04-04T09:33:36.388Z,101381.78
2023-04-04T09:36:10.350Z,101379.22
2023-04-04T09:38:43.165Z,101382.09
2023-04-04T09:41:11.983Z,101369.13
2023-04-04T09:43:41.446Z,101377.50
2023-04-04T09:46:10.028Z,101372.13
2023-04-04T09:48:39.828Z,101361.84
2023-04-04T09:51:13.555Z,101374.38
2023-04-04T09:53:42.190Z,101375.53
2023-04-04T09:56:10.923Z,101371.00
2023-04-04T09:58:46.271Z,101378.44
2023-04-04T10:01:19.969Z,101378.03
2023-04-04T10:03:55.374Z,101376.09
2023-04-04T10:06:25.571Z,101348.66
2023-04-04T10:08:54.335Z,101370.19
2023-04-04T10:11:32.416Z,101366.56
2023-04-04T10:14:02.726Z,101369.59
2023-04-04T10:16:34.443Z,101374.88
2023-04-04T10:19:07.387Z,101379.06
2023-04-04T10:21:36.747Z,101371.94
2023-04-04T10:24:09.878Z,101377.19
2023-04-04T10:26:38.565Z,101368.16
2023-04-04T10:29:06.968Z,101375.59
2023-04-04T10:31:41.018Z,101369.28
2023-04-04T10:34:16.540Z,101364.41
2023-04-04T10:36:50.292Z,101367.66
2023-04-04T10:39:27.561Z,101363.56
2023-04-04T10:41:57.483Z,101353.69
2023-04-04T10:44:31.823Z,101366.28
2023-04-04T10:47:05.790Z,101364.16
2023-04-04T10:49:36.771Z,101356.50
2023-04-04T10:52:05.694Z,101342.53
2023-04-04T10:54:34.755Z,101378.38
2023-04-04T10:57:04.511Z,101368.25
2023-04-04T10:59:32.901Z,101363.97
2023-04-04T11:02:03.468Z,101359.03
2023-04-04T11:04:42.639Z,101350.84
2023-04-04T11:07:17.266Z,101353.41
2023-04-04T11:09:56.664Z,101331.09
2023-04-04T11:12:34.210Z,101343.75
2023-04-04T11:15:11.047Z,101322.81
2023-04-04T11:17:57.687Z,101300.72
2023-04-04T11:20:34.525Z,101296.63
2023-04-04T11:23:11.448Z,101316.66
2023-04-04T11:25:42.956Z,101320.19
2023-04-04T11:28:26.630Z,101324.56
2023-04-04T11:31:27.676Z,101322.00
2023-04-04T11:34:01.940Z,101315.03
2023-04-04T11:36:56.443Z,101316.09
2023-04-04T11:39:29.507Z,101308.59
2023-04-04T11:42:03.522Z,101262.78
2023-04-04T11:44:34.279Z,101303.94
2023-04-04T11:47:10.756Z,101297.03
2023-04-04T11:49:41.674Z,101292.53
2023-04-04T11:52:14.156Z,101291.50
2023-04-04T11:54:44.853Z,101289.06
2023-04-04T11:57:14.262Z,101283.09
2023-04-04T11:59:44.641Z,101274.63
2023-04-04T12:02:14.624Z,101285.75
2023-04-04T12:04:44.714Z,101279.25
2023-04-04T12:07:15.436Z,101281.88
2023-04-04T12:09:44.060Z,101226.22
2023-04-04T12:12:16.340Z,101268.63
2023-04-04T12:14:45.324Z,101245.59
2023-04-04T12:17:14.485Z,101271.31
2023-04-04T12:19:44.440Z,101277.91
2023-04-04T12:22:14.815Z,101274.16
2023-04-04T12:24:43.287Z,101269.25
2023-04-04T12:27:11.797Z,101271.22
2023-04-04T12:29:40.584Z,101252.97
2023-04-04T12:32:10.853Z,101258.88
2023-04-04T12:34:48.660Z,101238.84
2023-04-04T12:37:23.583Z,101244.81
2023-04-04T12:39:52.486Z,101245.91
2023-04-04T12:42:26.374Z,101251.16
2023-04-04T12:44:55.416Z,101231.66
2023-04-04T12:47:26.423Z,101238.81
2023-04-04T12:49:56.042Z,101243.75
2023-04-04T12:52:32.743Z,101238.06
2023-04-04T12:55:09.756Z,101225.84
2023-04-04T12:57:40.654Z,101230.81
2023-04-04T13:00:10.692Z,101241.50
2023-04-04T13:02:40.181Z,101226.16
2023-04-04T13:05:11.216Z,101234.28
2023-04-04T13:07:44.322Z,101226.63
2023-04-04T13:10:16.374Z,101235.50
2023-04-04T13:13:00.140Z,101197.94
2023-04-04T13:15:59.306Z,101223.94
2023-04-04T13:18:33.957Z,101218.72
2023-04-04T13:21:02.268Z,101209.28
2023-04-04T13:23:32.308Z,101214.03
2023-04-04T13:26:00.639Z,101201.91
2023-04-04T13:28:29.090Z,101207.97
2023-04-04T13:30:57.537Z,101203.88
2023-04-04T13:33:25.914Z,101180.84
2023-04-04T13:35:54.544Z,101204.22
2023-04-04T13:38:23.333Z,101199.47
2023-04-04T13:40:54.468Z,101194.41
2023-04-04T13:43:22.745Z,101186.69
2023-04-04T13:45:53.014Z,101195.25
2023-04-04T13:48:21.548Z,101144.78
2023-04-04T13:50:51.542Z,101186.13
2023-04-04T13:53:20.151Z,101184.53
2023-04-04T13:56:02.174Z,101176.88
2023-04-04T13:58:38.247Z,101173.06
2023-04-04T14:01:07.140Z,101151.34
2023-04-04T14:03:36.044Z,101158.50
2023-04-04T14:06:10.501Z,101152.63
2023-04-04T14:08:40.274Z,101161.81
2023-04-04T14:11:08.971Z,101158.13
2023-04-04T14:13:38.748Z,101149.84
2023-04-04T14:16:09.381Z,101159.47
2023-04-04T14:18:37.813Z,101145.75
2023-04-04T14:21:07.281Z,101103.09
2023-04-04T14:23:35.639Z,101069.72
2023-04-04T14:26:04.520Z,101141.13
2023-04-04T14:28:33.724Z,101125.69
2023-04-04T14:31:03.455Z,101131.88
2023-04-04T14:33:31.937Z,101140.22
2023-04-04T14:36:00.493Z,101141.88
2023-04-04T14:38:33.133Z,101134.00
2023-04-04T14:41:02.725Z,101135.38
2023-04-04T14:43:31.065Z,101113.63
2023-04-04T14:45:59.370Z,101133.59
2023-04-04T14:48:29.102Z,101126.56
2023-04-04T14:50:57.914Z,101126.28
2023-04-04T14:53:26.311Z,101119.19
2023-04-04T14:55:54.693Z,101119.28
2023-04-04T14:58:23.189Z,101114.97
2023-04-04T15:00:52.267Z,101026.59
2023-04-04T15:03:20.625Z,101112.63
2023-04-04T15:05:50.657Z,101111.50
2023-04-04T15:08:18.991Z,101110.31
2023-04-04T15:10:47.416Z,101090.34
2023-04-04T15:13:15.772Z,101095.72
2023-04-04T15:15:44.301Z,101097.53
2023-04-04T15:18:12.609Z,101101.44
2023-04-04T15:20:41.068Z,101100.09
2023-04-04T15:23:10.849Z,101094.59
2023-04-04T15:25:39.237Z,101099.25
2023-04-04T15:28:07.578Z,101098.53
2023-04-04T15:30:35.916Z,101083.91
2023-04-04T15:33:04.436Z,101095.66
2023-04-04T15:35:32.895Z,101082.16
2023-04-04T15:38:01.273Z,101085.94
2023-04-04T15:40:31.056Z,101083.84
2023-04-04T15:42:59.657Z,101087.03
2023-04-04T15:45:28.316Z,101078.31
2023-04-04T15:47:56.747Z,101080.53
2023-04-04T15:50:25.263Z,101072.84
2023-04-04T15:52:53.636Z,101076.94
2023-04-04T15:55:22.247Z,101067.06
2023-04-04T15:57:52.014Z,101060.56
2023-04-04T16:00:20.883Z,101070.09
2023-04-04T16:02:49.268Z,101071.47
2023-04-04T16:05:17.789Z,101069.84
2023-04-04T16:07:46.258Z,101068.59
2023-04-04T16:10:14.653Z,101064.97
2023-04-04T16:12:43.100Z,101060.06
2023-04-04T16:15:13.478Z,101061.63
2023-04-04T16:17:41.784Z,101060.41
2023-04-04T16:20:13.021Z,101053.94
2023-04-04T16:22:41.491Z,101061.69
2023-04-04T16:25:10.720Z,101055.94
2023-04-04T16:27:39.048Z,101055.00
2023-04-04T16:30:09.146Z,101060.09
2023-04-04T16:32:39.011Z,101058.91
2023-04-04T16:35:09.291Z,101054.22
2023-04-04T16:37:37.606Z,101056.13
2023-04-04T16:40:06.945Z,101058.16
2023-04-04T16:42:35.339Z,101012.03
2023-04-04T16:45:03.818Z,101057.91
2023-04-04T16:47:32.274Z,101041.09
2023-04-04T16:50:02.047Z,101042.59
2023-04-04T16:52:30.513Z,101048.97
2023-04-04T16:54:59.007Z,101038.25
2023-04-04T16:57:28.377Z,101039.81
2023-04-04T16:59:57.263Z,101044.41
2023-04-04T17:02:25.624Z,101045.75
2023-04-04T17:04:54.284Z,101036.06
2023-04-04T17:07:24.294Z,101049.53
2023-04-04T17:09:52.808Z,101048.38
2023-04-04T17:12:21.619Z,101039.72
2023-04-04T17:14:50.026Z,101046.31
2023-04-04T17:17:18.420Z,101049.78
2023-04-04T17:19:46.773Z,101048.00
2023-04-04T17:22:16.076Z,101056.16
2023-04-04T17:24:46.064Z,101051.50
2023-04-04T17:27:14.486Z,101054.56
2023-04-04T17:29:43.031Z,101044.06
2023-04-04T17:32:11.893Z,101053.63
2023-04-04T17:34:40.505Z,101046.78
2023-04-04T17:37:11.132Z,101058.84
2023-04-04T17:39:39.799Z,101058.84
2023-04-04T17:42:09.628Z,101047.25
2023-04-04T17:44:38.141Z,101054.88
2023-04-04T17:47:06.809Z,101051.00
2023-04-04T17:49:35.881Z,101050.66
2023-04-04T17:52:04.825Z,101060.34
2023-04-04T17:54:33.497Z,101055.25
2023-04-04T17:57:03.370Z,101060.75
2023-04-04T17:59:33.176Z,101058.72
2023-04-04T18:02:01.747Z,101061.03
2023-04-04T18:04:30.232Z,101046.34
2023-04-04T18:06:59.276Z,101058.03
2023-04-04T18:09:29.014Z,101071.81
2023-04-04T18:11:57.985Z,101068.19
2023-04-04T18:14:26.513Z,101065.97
2023-04-04T18:16:56.567Z,101065.81
2023-04-04T18:19:25.056Z,101045.22
2023-04-04T18:21:59.685Z,101066.41
2023-04-04T18:24:28.301Z,101070.78
2023-04-04T18:26:56.890Z,101069.44
2023-04-04T18:29:26.849Z,101075.06
2023-04-04T18:31:56.660Z,101074.19
2023-04-04T18:34:25.038Z,101079.13
2023-04-04T18:36:53.446Z,101081.63
2023-04-04T18:39:21.811Z,101081.94
2023-04-04T18:41:51.408Z,101087.97
2023-04-04T18:44:19.954Z,101085.72
2023-04-04T18:46:48.443Z,101093.31
2023-04-04T18:49:18.298Z,101087.81
2023-04-04T18:51:48.419Z,101087.09
2023-04-04T18:54:17.051Z,101099.69
2023-04-04T18:56:45.618Z,101100.38
2023-04-04T18:59:14.989Z,101108.47
2023-04-04T19:01:43.429Z,101109.56
2023-04-04T19:04:12.622Z,101099.34
2023-04-04T19:06:43.660Z,101101.38
2023-04-04T19:09:13.141Z,101100.56
2023-04-04T19:11:43.764Z,101095.03
2023-04-04T19:14:12.145Z,101101.78
2023-04-04T19:16:41.371Z,101106.56
2023-04-04T19:19:09.814Z,101109.09
2023-04-04T19:21:38.199Z,101100.53
2023-04-04T19:24:08.899Z,101096.25
2023-04-04T19:26:37.304Z,101092.94
2023-04-04T19:29:06.269Z,101095.16
2023-04-04T19:31:34.682Z,101099.56
2023-04-04T19:34:03.833Z,101080.78
2023-04-04T19:36:37.734Z,101082.03
2023-04-04T19:39:10.569Z,101087.41
2023-04-04T19:41:40.201Z,101093.72
2023-04-04T19:44:19.339Z,101087.56
2023-04-04T19:46:48.434Z,101029.25
2023-04-04T19:49:17.966Z,101085.16
2023-04-04T19:51:54.076Z,101084.03
2023-04-04T19:54:39.016Z,101085.56
2023-04-04T19:57:16.800Z,101084.31
2023-04-04T20:00:13.714Z,101087.13
2023-04-04T20:02:57.894Z,101081.75
2023-04-04T20:06:06.631Z,101091.97
2023-04-04T20:08:43.947Z,101093.59
2023-04-04T20:11:14.565Z,101086.84
2023-04-04T20:13:43.144Z,101090.28
2023-04-04T20:16:14.081Z,101092.22
2023-04-04T20:18:45.266Z,101097.69
2023-04-04T20:21:16.405Z,101078.63
2023-04-04T20:23:49.412Z,101092.66
2023-04-04T20:26:54.996Z,101101.19
2023-04-04T20:29:27.213Z,101085.16
2023-04-04T20:31:58.052Z,101091.28
2023-04-04T20:34:44.654Z,101089.28
2023-04-04T20:37:16.246Z,101087.34
2023-04-04T20:39:50.558Z,101066.16
2023-04-04T20:42:34.192Z,101086.13
2023-04-04T20:45:34.865Z,101092.19
2023-04-04T20:48:06.664Z,101069.09
2023-04-04T20:50:46.364Z,101095.50
2023-04-04T20:53:24.443Z,101090.47
2023-04-04T20:55:53.954Z,101098.38
2023-04-04T20:58:30.009Z,101098.44
2023-04-04T21:01:00.888Z,101101.31
2023-04-04T21:03:34.730Z,101100.84
2023-04-04T21:06:12.679Z,101104.31
2023-04-04T21:08:46.473Z,101105.59
2023-04-04T21:11:25.340Z,101106.28
2023-04-04T21:13:56.065Z,101078.16
2023-04-04T21:16:29.480Z,101103.03
2023-04-04T21:19:01.039Z,101105.66
2023-04-04T21:21:30.110Z,101103.47
2023-04-04T21:24:00.367Z,101098.97
2023-04-04T21:26:34.495Z,101099.31
2023-04-04T21:29:06.948Z,101107.53
2023-04-04T21:31:38.568Z,101104.91
2023-04-04T21:34:13.244Z,101103.38
2023-04-04T21:36:42.661Z,101093.47
2023-04-04T21:39:16.053Z,101106.41
2023-04-04T21:41:46.017Z,101110.22
2023-04-04T21:44:15.870Z,101110.28
2023-04-04T21:46:44.395Z,101115.53
2023-04-04T21:49:13.262Z,101105.25
2023-04-04T21:51:41.772Z,101105.00
2023-04-04T21:54:10.420Z,101096.97
2023-04-04T21:56:39.212Z,101101.75
2023-04-04T21:59:10.232Z,101101.50
2023-04-04T22:01:40.952Z,101097.91
2023-04-04T22:04:09.546Z,101109.13
2023-04-04T22:06:37.981Z,101060.97
2023-04-04T22:09:06.648Z,101113.22
2023-04-04T22:11:38.956Z,101112.00
2023-04-04T22:14:08.079Z,101112.44
2023-04-04T22:16:39.738Z,101112.72
2023-04-04T22:19:11.381Z,101102.66
2023-04-04T22:21:48.226Z,101119.28
2023-04-04T22:24:17.948Z,101117.19
2023-04-04T22:26:47.423Z,101095.41
2023-04-04T22:29:16.163Z,101106.88
2023-04-04T22:31:44.743Z,101103.69
2023-04-04T22:34:15.575Z,101095.34
2023-04-04T22:36:44.867Z,101102.44
2023-04-04T22:39:16.189Z,101090.34
2023-04-04T22:41:45.605Z,101083.22
2023-04-04T22:44:14.217Z,101098.66
2023-04-04T22:46:43.027Z,101105.03
2023-04-04T22:49:13.360Z,101096.19
2023-04-04T22:51:46.277Z,101098.66
2023-04-04T22:54:17.294Z,101099.97
2023-04-04T22:56:46.104Z,101093.44
2023-04-04T22:59:14.725Z,101094.19
2023-04-04T23:01:43.632Z,101086.34
2023-04-04T23:04:12.360Z,101090.09
2023-04-04T23:06:46.354Z,101083.78
2023-04-04T23:09:14.819Z,101087.59
2023-04-04T23:11:43.252Z,101032.31
2023-04-04T23:14:14.842Z,101080.19
2023-04-04T23:16:43.620Z,101086.56
2023-04-04T23:19:12.345Z,101077.47
2023-04-04T23:21:40.819Z,101085.69
2023-04-04T23:24:10.641Z,101085.94
2023-04-04T23:26:39.105Z,101081.06
2023-04-04T23:29:07.508Z,101087.47
2023-04-04T23:31:36.509Z,101078.44
2023-04-04T23:34:04.996Z,101088.53
2023-04-04T23:36:33.652Z,101058.88
2023-04-04T23:39:02.094Z,101081.16
2023-04-04T23:41:32.354Z,101072.41
2023-04-04T23:44:01.063Z,101071.81
2023-04-04T23:46:30.564Z,101063.25
2023-04-04T23:48:59.052Z,101071.06
2023-04-04T23:51:30.438Z,101071.06
2023-04-04T23:53:58.818Z,101068.47
2023-04-04T23:56:27.213Z,101037.78
2023-04-04T23:58:57.091Z,101061.84
